Time;durP1;ratioP1;P1;durP2;ratioP2;P2;SDS_P1;SDS_P2;PMS_P1;PMS_P2;Temp;Humidity;BMP_temperature;BMP_pressure;BME280_temperature;BME280_humidity;BME280_pressure;Samples;Min_cycle;Max_cycle;Signal;HPM_P1;HPM_P2
2022/12/26 00:01:33;;;;;;;271.55;190.57;;;;;;;;;;5093881;28;20028;-75
2022/12/26 00:03:59;;;;;;;259.77;183.60;;;;;;;;;;5095492;28;20020;-74
2022/12/26 00:06:25;;;;;;;227.48;162.57;;;;;;;;;;5098096;28;20104;-74
2022/12/26 00:08:51;;;;;;;307.55;203.10;;;;;;;;;;5093189;28;20427;-76
2022/12/26 00:11:17;;;;;;;237.93;156.10;;;;;;;;;;5085268;28;20076;-77
2022/12/26 00:13:42;;;;;;;240.93;176.25;;;;;;;;;;5085561;28;20053;-75
2022/12/26 00:16:10;;;;;;;268.80;193.38;;;;;;;;;;5085981;28;20112;-76
2022/12/26 00:18:36;;;;;;;261.90;182.50;;;;;;;;;;5085465;28;20019;-76
2022/12/26 00:21:01;;;;;;;239.25;165.35;;;;;;;;;;5100725;28;20101;-77
2022/12/26 00:23:26;;;;;;;266.52;174.20;;;;;;;;;;5097483;28;20325;-76
2022/12/26 00:25:52;;;;;;;186.10;121.47;;;;;;;;;;5099501;28;20035;-77
2022/12/26 00:28:17;;;;;;;284.08;210.30;;;;;;;;;;5099029;28;20031;-74
2022/12/26 00:30:42;;;;;;;343.05;274.58;;;;;;;;;;5097181;28;21124;-73
2022/12/26 00:33:07;;;;;;;255.40;195.95;;;;;;;;;;5087634;28;20027;-74
2022/12/26 00:35:33;;;;;;;273.20;190.27;;;;;;;;;;5097161;28;20100;-74
2022/12/26 00:37:58;;;;;;;317.45;211.88;;;;;;;;;;5094522;28;20062;-73
2022/12/26 00:40:23;;;;;;;221.38;158.30;;;;;;;;;;5099790;28;20023;-74
2022/12/26 00:42:48;;;;;;;240.20;176.90;;;;;;;;;;5089251;28;20446;-78
2022/12/26 00:45:14;;;;;;;146.52;110.22;;;;;;;;;;5088769;28;20108;-76
2022/12/26 00:47:39;;;;;;;149.65;110.95;;;;;;;;;;5084256;28;20027;-78
2022/12/26 00:50:05;;;;;;;107.95;85.53;;;;;;;;;;5087019;28;20401;-75
2022/12/26 00:52:30;;;;;;;112.95;84.70;;;;;;;;;;5095143;28;20358;-77
2022/12/26 00:54:55;;;;;;;96.07;73.22;;;;;;;;;;5097944;28;20620;-76
2022/12/26 00:57:21;;;;;;;141.57;108.68;;;;;;;;;;5097416;28;20051;-73
2022/12/26 00:59:46;;;;;;;160.75;129.40;;;;;;;;;;5098456;28;20098;-74
2022/12/26 01:04:55;;;;;;;118.13;82.18;;;;;;;;;;5089798;28;20039;-76
2022/12/26 01:07:20;;;;;;;79.45;55.45;;;;;;;;;;5098385;28;20027;-77
2022/12/26 01:09:45;;;;;;;53.38;39.88;;;;;;;;;;5098147;28;20343;-73
2022/12/26 01:12:11;;;;;;;69.30;52.15;;;;;;;;;;5096538;28;20115;-72
2022/12/26 01:14:36;;;;;;;92.47;64.68;;;;;;;;;;5087198;28;20023;-75
2022/12/26 01:17:01;;;;;;;107.22;76.78;;;;;;;;;;5091428;27;21258;-79
2022/12/26 01:19:26;;;;;;;73.57;52.20;;;;;;;;;;5090069;28;20359;-76
2022/12/26 01:21:52;;;;;;;63.65;47.80;;;;;;;;;;5086755;28;20385;-75
2022/12/26 01:24:17;;;;;;;59.28;44.65;;;;;;;;;;5096096;28;20146;-72
2022/12/26 01:26:43;;;;;;;53.03;41.85;;;;;;;;;;5097885;27;20041;-73
2022/12/26 01:29:08;;;;;;;60.22;46.45;;;;;;;;;;5099015;28;20458;-76
2022/12/26 01:31:33;;;;;;;41.25;30.35;;;;;;;;;;5099382;28;20054;-74
2022/12/26 01:33:58;;;;;;;42.10;32.00;;;;;;;;;;5089612;28;20020;-74
2022/12/26 01:36:24;;;;;;;57.33;42.15;;;;;;;;;;5090381;28;20106;-74
2022/12/26 01:38:49;;;;;;;52.13;36.33;;;;;;;;;;5087637;28;20024;-76
2022/12/26 01:41:21;;;;;;;56.80;39.03;;;;;;;;;;5098085;28;20039;-76
2022/12/26 01:43:49;;;;;;;90.68;59.55;;;;;;;;;;5093230;28;20020;-73
2022/12/26 01:46:15;;;;;;;67.68;49.28;;;;;;;;;;5089534;28;20032;-76
2022/12/26 01:48:40;;;;;;;76.78;57.90;;;;;;;;;;5097950;28;20020;-75
2022/12/26 01:51:06;;;;;;;72.47;53.33;;;;;;;;;;5086617;28;20445;-76
2022/12/26 01:53:33;;;;;;;76.30;50.65;;;;;;;;;;5088097;28;20076;-79
2022/12/26 01:56:07;;;;;;;123.40;87.00;;;;;;;;;;5095381;28;20415;-76
2022/12/26 01:58:34;;;;;;;99.30;70.78;;;;;;;;;;5093484;28;20051;-78
2022/12/26 02:01:01;;;;;;;91.22;62.50;;;;;;;;;;5088489;28;20055;-76
2022/12/26 02:06:11;;;;;;;115.18;79.90;;;;;;;;;;5087451;28;20030;-76
2022/12/26 02:08:38;;;;;;;81.55;57.08;;;;;;;;;;5088488;28;20103;-76
2022/12/26 02:11:13;;;;;;;93.05;60.55;;;;;;;;;;5092074;28;20067;-75
2022/12/26 02:13:38;;;;;;;57.60;40.30;;;;;;;;;;5096174;28;20031;-78
2022/12/26 02:16:05;;;;;;;47.47;34.65;;;;;;;;;;5096145;28;20028;-74
2022/12/26 02:18:30;;;;;;;52.95;38.65;;;;;;;;;;5094713;28;20065;-78
2022/12/26 02:21:14;;;;;;;61.97;45.25;;;;;;;;;;5082202;28;20074;-75
2022/12/26 02:23:39;;;;;;;109.47;78.72;;;;;;;;;;5095282;28;20020;-77
2022/12/26 02:26:07;;;;;;;122.43;90.00;;;;;;;;;;5085709;28;20478;-78
2022/12/26 02:29:01;;;;;;;95.55;70.47;;;;;;;;;;5095269;28;20062;-77
2022/12/26 02:31:47;;;;;;;79.75;56.25;;;;;;;;;;5095397;28;20110;-78
2022/12/26 02:34:14;;;;;;;74.82;53.47;;;;;;;;;;5092000;28;20084;-75
2022/12/26 02:36:40;;;;;;;79.05;54.95;;;;;;;;;;5090114;27;20015;-75
2022/12/26 02:39:08;;;;;;;102.50;76.05;;;;;;;;;;5095722;28;20988;-80
2022/12/26 02:41:36;;;;;;;125.80;81.50;;;;;;;;;;5082050;28;20067;-73
2022/12/26 02:47:01;;;;;;;142.82;93.50;;;;;;;;;;5086445;28;20126;-76
2022/12/26 02:47:02;;;;;;;138.93;87.10;;;;;;;;;;5091559;28;20035;-75
2022/12/26 03:15:17;;;;;;;34.22;26.45;;;;;;;;;;5083950;28;20042;-74
2022/12/26 03:17:54;;;;;;;40.63;31.08;;;;;;;;;;5095888;28;20446;-73
2022/12/26 03:20:24;;;;;;;86.43;51.33;;;;;;;;;;5094131;28;20020;-73
2022/12/26 03:22:53;;;;;;;107.93;60.50;;;;;;;;;;5096635;28;20032;-74
2022/12/26 03:28:23;;;;;;;148.13;80.28;;;;;;;;;;5094474;28;20092;-74
2022/12/26 03:30:49;;;;;;;148.00;82.82;;;;;;;;;;5094605;28;20027;-73
2022/12/26 03:35:59;;;;;;;141.80;96.25;;;;;;;;;;5096940;28;20195;-77
2022/12/26 03:38:29;;;;;;;124.70;84.68;;;;;;;;;;5093511;28;20140;-75
2022/12/26 04:46:19;;;;;;;27.92;20.20;;;;;;;;;;5099063;28;20353;-74
2022/12/26 04:51:30;;;;;;;28.02;19.73;;;;;;;;;;5094789;28;20166;-74
2022/12/26 04:53:55;;;;;;;34.70;26.92;;;;;;;;;;5101295;28;20759;-77
2022/12/26 04:56:20;;;;;;;80.25;56.28;;;;;;;;;;5098970;28;20477;-74
2022/12/26 04:58:46;;;;;;;106.55;78.97;;;;;;;;;;5100336;28;20058;-73
2022/12/26 05:09:35;;;;;;;100.85;77.35;;;;;;;;;;5085128;28;20458;-74
2022/12/26 05:12:01;;;;;;;81.97;65.10;;;;;;;;;;5097049;27;20034;-74
2022/12/26 05:14:27;;;;;;;80.72;64.40;;;;;;;;;;5096674;28;20035;-77
2022/12/26 05:30:36;;;;;;;89.20;73.07;;;;;;;;;;5096790;28;20038;-76
2022/12/26 05:35:46;;;;;;;108.00;88.38;;;;;;;;;;5092195;28;20039;-75
2022/12/26 05:38:11;;;;;;;104.88;82.95;;;;;;;;;;5099540;28;20027;-74
2022/12/26 05:40:36;;;;;;;104.90;84.70;;;;;;;;;;5096612;28;20068;-76
2022/12/26 05:43:02;;;;;;;133.10;97.32;;;;;;;;;;5097086;28;20032;-74
2022/12/26 05:45:27;;;;;;;135.80;107.78;;;;;;;;;;5095279;28;20032;-76
2022/12/26 05:47:59;;;;;;;119.80;87.10;;;;;;;;;;5095474;28;20028;-75
2022/12/26 05:50:24;;;;;;;100.10;72.80;;;;;;;;;;5098202;28;20043;-78
2022/12/26 05:52:49;;;;;;;98.43;71.25;;;;;;;;;;5096844;28;20450;-74
2022/12/26 05:55:15;;;;;;;170.55;122.50;;;;;;;;;;5094903;28;20028;-78
2022/12/26 05:57:40;;;;;;;110.20;77.55;;;;;;;;;;5083810;28;20511;-76
2022/12/26 06:00:06;;;;;;;126.38;83.97;;;;;;;;;;5093055;28;20494;-75
2022/12/26 06:02:31;;;;;;;191.30;129.43;;;;;;;;;;5094272;28;20054;-76
2022/12/26 06:04:56;;;;;;;145.90;108.47;;;;;;;;;;5096029;28;20363;-74
2022/12/26 06:07:22;;;;;;;186.63;141.40;;;;;;;;;;5083250;28;20176;-74
2022/12/26 06:09:47;;;;;;;63.35;49.42;;;;;;;;;;5079555;28;20037;-72
2022/12/26 06:12:12;;;;;;;150.98;112.90;;;;;;;;;;5083296;28;20139;-73
2022/12/26 06:14:37;;;;;;;182.48;133.10;;;;;;;;;;5089689;28;20050;-72
2022/12/26 06:17:03;;;;;;;146.48;110.00;;;;;;;;;;5088936;28;20039;-73
2022/12/26 06:19:28;;;;;;;237.70;158.15;;;;;;;;;;5091934;28;20160;-73
2022/12/26 06:21:53;;;;;;;225.82;157.38;;;;;;;;;;5095900;28;20032;-73
2022/12/26 06:24:19;;;;;;;397.88;235.05;;;;;;;;;;5096767;28;20039;-76
2022/12/26 06:26:44;;;;;;;213.80;134.20;;;;;;;;;;5079579;28;20432;-75
2022/12/26 06:29:09;;;;;;;233.23;148.30;;;;;;;;;;5088794;28;20059;-73
2022/12/26 06:31:35;;;;;;;458.83;308.45;;;;;;;;;;5095396;28;20038;-72
2022/12/26 06:34:00;;;;;;;477.88;345.15;;;;;;;;;;5096039;28;20028;-73
2022/12/26 06:36:26;;;;;;;506.23;359.02;;;;;;;;;;5095311;28;20023;-73
2022/12/26 06:38:52;;;;;;;538.80;385.00;;;;;;;;;;5092502;28;20032;-72
2022/12/26 06:41:18;;;;;;;237.80;165.90;;;;;;;;;;5096910;28;20065;-73
2022/12/26 06:43:44;;;;;;;263.42;192.30;;;;;;;;;;5096661;28;20419;-72
2022/12/26 06:46:11;;;;;;;289.67;215.80;;;;;;;;;;5092180;28;20028;-74
2022/12/26 06:48:38;;;;;;;286.88;218.70;;;;;;;;;;5093577;28;20028;-73
2022/12/26 06:51:08;;;;;;;347.95;260.95;;;;;;;;;;5096208;28;20028;-73
2022/12/26 06:53:33;;;;;;;303.48;235.57;;;;;;;;;;5091946;28;20023;-72
2022/12/26 06:56:09;;;;;;;415.50;318.55;;;;;;;;;;5092944;28;20472;-72
2022/12/26 06:58:34;;;;;;;265.40;208.13;;;;;;;;;;5078448;28;20495;-71
2022/12/26 07:01:03;;;;;;;345.90;250.80;;;;;;;;;;5092715;28;20038;-72
2022/12/26 07:03:29;;;;;;;249.68;189.63;;;;;;;;;;5093089;28;20532;-71
2022/12/26 07:05:54;;;;;;;184.85;139.75;;;;;;;;;;5088135;28;20034;-71
2022/12/26 07:08:20;;;;;;;133.98;108.05;;;;;;;;;;5091663;28;20015;-71
2022/12/26 07:10:45;;;;;;;86.53;75.43;;;;;;;;;;5087462;28;20108;-74
2022/12/26 07:13:10;;;;;;;73.22;61.30;;;;;;;;;;5080627;28;20023;-70
2022/12/26 07:15:36;;;;;;;155.88;123.97;;;;;;;;;;5077877;28;20152;-70
2022/12/26 07:18:01;;;;;;;90.65;71.22;;;;;;;;;;5080582;28;20028;-73
2022/12/26 07:20:26;;;;;;;67.03;53.30;;;;;;;;;;5080899;28;20056;-72
2022/12/26 07:22:52;;;;;;;120.88;91.18;;;;;;;;;;5079010;28;20102;-71
2022/12/26 07:25:18;;;;;;;171.65;130.15;;;;;;;;;;5075956;28;20043;-73
2022/12/26 07:27:43;;;;;;;141.32;117.80;;;;;;;;;;5079290;28;20028;-71
2022/12/26 07:30:09;;;;;;;103.80;89.30;;;;;;;;;;5078528;28;20022;-71
2022/12/26 07:32:34;;;;;;;105.43;81.75;;;;;;;;;;5078684;28;20027;-72
2022/12/26 07:34:59;;;;;;;123.72;92.55;;;;;;;;;;5076676;28;20028;-72
2022/12/26 07:37:25;;;;;;;179.63;132.55;;;;;;;;;;5078647;28;20106;-72
2022/12/26 07:39:50;;;;;;;134.77;107.50;;;;;;;;;;5078087;28;20337;-74
2022/12/26 07:42:15;;;;;;;110.35;86.78;;;;;;;;;;5079306;28;20366;-71
2022/12/26 07:44:41;;;;;;;100.10;78.35;;;;;;;;;;5079647;28;20032;-70
2022/12/26 07:47:07;;;;;;;88.47;66.80;;;;;;;;;;5077030;28;20027;-70
2022/12/26 07:49:32;;;;;;;73.38;54.83;;;;;;;;;;5080766;28;20028;-71
2022/12/26 07:51:57;;;;;;;72.20;56.03;;;;;;;;;;5078636;28;20092;-71
2022/12/26 07:54:22;;;;;;;115.85;87.65;;;;;;;;;;5078637;28;20020;-70
2022/12/26 07:56:48;;;;;;;77.40;54.65;;;;;;;;;;5080972;28;20138;-71
2022/12/26 07:59:14;;;;;;;58.60;44.22;;;;;;;;;;5081828;28;20040;-73
2022/12/26 08:01:39;;;;;;;91.28;68.32;;;;;;;;;;5080780;28;20058;-71
2022/12/26 08:04:05;;;;;;;64.63;51.38;;;;;;;;;;5080681;28;20058;-75
2022/12/26 08:06:30;;;;;;;112.47;96.70;;;;;;;;;;5081304;28;20031;-72
2022/12/26 08:08:55;;;;;;;144.10;120.07;;;;;;;;;;5082497;28;20092;-71
2022/12/26 08:11:22;;;;;;;112.95;98.35;;;;;;;;;;5076903;28;20030;-75
2022/12/26 08:13:47;;;;;;;62.80;55.38;;;;;;;;;;5084528;28;20027;-70
2022/12/26 08:16:13;;;;;;;61.10;54.40;;;;;;;;;;5074782;28;20046;-70
2022/12/26 08:18:39;;;;;;;58.50;52.33;;;;;;;;;;5080000;28;20061;-71
2022/12/26 08:21:04;;;;;;;75.40;66.30;;;;;;;;;;5080925;28;20050;-73
2022/12/26 08:23:29;;;;;;;82.63;73.00;;;;;;;;;;5078381;28;20028;-71
2022/12/26 08:25:54;;;;;;;105.05;90.40;;;;;;;;;;5079796;28;20027;-71
2022/12/26 08:28:20;;;;;;;94.80;82.40;;;;;;;;;;5084894;28;20023;-71
2022/12/26 08:30:45;;;;;;;78.32;68.97;;;;;;;;;;5084979;28;20019;-74
2022/12/26 08:33:11;;;;;;;75.10;65.82;;;;;;;;;;5083224;28;20095;-70
2022/12/26 08:35:37;;;;;;;66.78;55.60;;;;;;;;;;5081324;28;20030;-71
2022/12/26 08:38:03;;;;;;;66.05;57.40;;;;;;;;;;5082416;28;20024;-71
2022/12/26 08:40:28;;;;;;;71.65;58.85;;;;;;;;;;5081147;28;20046;-73
2022/12/26 08:42:53;;;;;;;45.42;39.33;;;;;;;;;;5080936;28;20066;-70
2022/12/26 08:45:19;;;;;;;40.28;36.05;;;;;;;;;;5082376;28;20034;-74
2022/12/26 08:47:44;;;;;;;46.35;40.92;;;;;;;;;;5081844;28;20024;-70
2022/12/26 08:50:09;;;;;;;84.95;70.13;;;;;;;;;;5083810;28;20035;-68
2022/12/26 08:52:35;;;;;;;116.63;90.32;;;;;;;;;;5083488;28;20148;-71
2022/12/26 08:55:00;;;;;;;191.80;138.35;;;;;;;;;;5085326;28;20744;-70
2022/12/26 08:57:26;;;;;;;115.63;81.82;;;;;;;;;;5084570;28;20043;-70
2022/12/26 08:59:51;;;;;;;93.30;71.28;;;;;;;;;;5085062;28;20019;-73
2022/12/26 09:02:16;;;;;;;61.72;47.22;;;;;;;;;;5085015;28;20035;-71
2022/12/26 09:04:41;;;;;;;207.75;134.52;;;;;;;;;;5080911;28;20134;-71
2022/12/26 09:07:07;;;;;;;52.03;38.50;;;;;;;;;;5082218;28;20028;-73
2022/12/26 09:09:33;;;;;;;51.28;39.80;;;;;;;;;;5084486;28;20335;-72
2022/12/26 09:11:58;;;;;;;87.32;54.58;;;;;;;;;;5081318;28;20105;-73
2022/12/26 09:14:23;;;;;;;40.75;33.40;;;;;;;;;;5084708;28;20050;-69
2022/12/26 09:16:50;;;;;;;41.33;36.83;;;;;;;;;;5084245;28;20034;-71
2022/12/26 09:19:16;;;;;;;57.10;50.22;;;;;;;;;;5079646;28;20110;-70
2022/12/26 09:21:42;;;;;;;66.68;54.22;;;;;;;;;;5080083;28;20340;-69
2022/12/26 09:24:11;;;;;;;58.78;50.05;;;;;;;;;;5079473;28;20036;-71
2022/12/26 09:26:36;;;;;;;52.35;42.58;;;;;;;;;;5083040;28;20032;-69
2022/12/26 09:29:02;;;;;;;54.13;48.00;;;;;;;;;;5082077;28;20494;-74
2022/12/26 09:31:28;;;;;;;70.70;63.03;;;;;;;;;;5084454;28;20599;-71
2022/12/26 09:33:53;;;;;;;55.63;49.67;;;;;;;;;;5082258;28;20480;-69
2022/12/26 09:36:20;;;;;;;53.05;46.25;;;;;;;;;;5082437;28;20106;-74
2022/12/26 09:38:46;;;;;;;52.28;46.53;;;;;;;;;;5080758;28;20115;-72
2022/12/26 09:41:23;;;;;;;60.75;51.42;;;;;;;;;;5083121;28;20050;-70
2022/12/26 09:44:07;;;;;;;56.88;45.53;;;;;;;;;;5082054;28;20028;-75
2022/12/26 09:46:38;;;;;;;73.85;65.63;;;;;;;;;;5075618;28;20055;-73
2022/12/26 09:49:07;;;;;;;74.35;66.43;;;;;;;;;;5078995;28;20519;-71
2022/12/26 09:51:33;;;;;;;84.78;75.50;;;;;;;;;;5086014;28;20060;-75
2022/12/26 09:54:00;;;;;;;71.63;63.83;;;;;;;;;;5079654;28;20526;-73
2022/12/26 09:56:26;;;;;;;72.82;65.07;;;;;;;;;;5077570;28;20486;-70
2022/12/26 09:58:56;;;;;;;51.75;46.30;;;;;;;;;;5082121;28;20048;-69
2022/12/26 10:01:26;;;;;;;42.30;37.70;;;;;;;;;;5081955;28;20032;-70
2022/12/26 10:03:51;;;;;;;35.40;30.88;;;;;;;;;;5082192;28;20032;-72
2022/12/26 10:06:43;;;;;;;39.70;34.20;;;;;;;;;;5083570;28;20089;-69
2022/12/26 10:09:24;;;;;;;35.05;28.83;;;;;;;;;;5020419;28;20076;-71
2022/12/26 10:11:50;;;;;;;40.40;33.92;;;;;;;;;;5021138;28;20028;-70
2022/12/26 10:14:20;;;;;;;37.58;32.95;;;;;;;;;;5020458;28;20032;-70
2022/12/26 10:16:51;;;;;;;15.02;12.90;;;;;;;;;;5019762;28;20506;-70
2022/12/26 10:19:29;;;;;;;30.60;27.48;;;;;;;;;;5019422;28;20033;-70
2022/12/26 10:22:09;;;;;;;60.58;52.95;;;;;;;;;;5020313;28;20029;-70
2022/12/26 10:24:37;;;;;;;73.38;59.00;;;;;;;;;;5019139;28;20047;-74
2022/12/26 10:27:05;;;;;;;30.55;26.52;;;;;;;;;;5019432;28;20105;-72
2022/12/26 10:29:41;;;;;;;30.25;24.42;;;;;;;;;;5021414;28;20074;-70
2022/12/26 10:32:20;;;;;;;17.10;14.82;;;;;;;;;;5020839;28;20041;-71
2022/12/26 10:34:46;;;;;;;33.58;29.90;;;;;;;;;;5020358;28;20025;-72
2022/12/26 10:37:17;;;;;;;12.88;9.60;;;;;;;;;;5019863;28;20025;-72
2022/12/26 10:39:46;;;;;;;22.48;19.02;;;;;;;;;;5020808;28;20240;-71
2022/12/26 10:42:22;;;;;;;113.80;90.35;;;;;;;;;;5019417;28;20119;-71
2022/12/26 10:44:47;;;;;;;26.98;18.77;;;;;;;;;;5019235;28;20072;-70
2022/12/26 10:47:25;;;;;;;26.50;18.25;;;;;;;;;;5079512;28;20039;-70
2022/12/26 10:49:50;;;;;;;16.23;14.50;;;;;;;;;;5082077;28;20077;-69
2022/12/26 10:52:16;;;;;;;9.55;7.95;;;;;;;;;;5078790;28;20743;-69
2022/12/26 10:54:44;;;;;;;16.50;10.55;;;;;;;;;;5079853;28;20026;-71
2022/12/26 10:57:10;;;;;;;14.70;11.93;;;;;;;;;;5078581;28;20123;-71
2022/12/26 10:59:43;;;;;;;9.77;8.77;;;;;;;;;;5082924;28;20502;-68
2022/12/26 11:02:21;;;;;;;9.32;7.38;;;;;;;;;;5084425;28;20019;-70
2022/12/26 11:05:07;;;;;;;12.20;9.10;;;;;;;;;;5081428;28;20055;-73
2022/12/26 11:07:34;;;;;;;14.30;11.57;;;;;;;;;;5081648;28;20106;-71
2022/12/26 11:10:00;;;;;;;20.38;14.18;;;;;;;;;;5081907;28;20023;-71
2022/12/26 11:12:28;;;;;;;14.93;11.07;;;;;;;;;;5080382;28;20106;-71
2022/12/26 11:14:58;;;;;;;12.70;10.10;;;;;;;;;;5080828;28;20023;-74
2022/12/26 11:17:30;;;;;;;15.57;12.73;;;;;;;;;;5081733;28;20027;-71
2022/12/26 11:20:14;;;;;;;11.48;9.50;;;;;;;;;;5081700;28;20035;-70
2022/12/26 11:22:39;;;;;;;14.65;12.50;;;;;;;;;;5078457;28;20060;-71
2022/12/26 11:25:23;;;;;;;9.32;8.07;;;;;;;;;;5083185;28;20077;-70
2022/12/26 11:27:50;;;;;;;7.75;6.78;;;;;;;;;;5081693;28;20077;-70
2022/12/26 11:30:18;;;;;;;16.63;10.77;;;;;;;;;;5079573;28;20031;-71
2022/12/26 11:32:46;;;;;;;8.13;7.18;;;;;;;;;;5082450;28;20027;-71
2022/12/26 11:35:22;;;;;;;14.38;10.63;;;;;;;;;;5081853;28;20081;-74
2022/12/26 11:37:55;;;;;;;16.75;14.85;;;;;;;;;;5079231;28;20026;-71
2022/12/26 11:40:22;;;;;;;12.70;8.57;;;;;;;;;;5080781;28;20373;-70
2022/12/26 11:42:53;;;;;;;8.85;7.95;;;;;;;;;;5083136;28;20039;-70
2022/12/26 11:45:24;;;;;;;14.57;9.80;;;;;;;;;;5077072;28;20080;-71
2022/12/26 11:47:49;;;;;;;12.18;8.68;;;;;;;;;;5076717;28;20028;-73
2022/12/26 11:50:20;;;;;;;14.35;9.88;;;;;;;;;;5077850;28;20038;-71
2022/12/26 11:52:54;;;;;;;16.23;12.43;;;;;;;;;;5076980;28;20102;-71
2022/12/26 11:55:22;;;;;;;42.22;33.47;;;;;;;;;;5079251;28;20031;-70
2022/12/26 11:58:05;;;;;;;38.70;28.53;;;;;;;;;;5077796;28;20052;-70
2022/12/26 12:00:31;;;;;;;16.90;12.73;;;;;;;;;;5082392;28;20028;-70
2022/12/26 12:02:57;;;;;;;34.30;28.75;;;;;;;;;;5083822;28;20362;-70
2022/12/26 12:05:28;;;;;;;22.25;19.02;;;;;;;;;;5085496;28;20122;-71
2022/12/26 12:08:08;;;;;;;17.60;14.90;;;;;;;;;;5080560;28;20033;-71
2022/12/26 12:10:47;;;;;;;20.38;17.13;;;;;;;;;;5081030;28;20461;-72
2022/12/26 12:13:31;;;;;;;19.13;14.32;;;;;;;;;;5085360;28;20057;-70
2022/12/26 12:16:08;;;;;;;18.45;13.10;;;;;;;;;;5082630;28;20051;-74
2022/12/26 12:18:33;;;;;;;18.77;15.52;;;;;;;;;;5082911;28;20015;-71
2022/12/26 12:20:59;;;;;;;12.32;9.40;;;;;;;;;;5085770;28;20047;-70
2022/12/26 12:23:38;;;;;;;13.15;7.03;;;;;;;;;;5083806;28;20028;-70
2022/12/26 12:26:10;;;;;;;9.25;7.43;;;;;;;;;;5080716;28;20027;-70
2022/12/26 12:28:43;;;;;;;14.50;7.82;;;;;;;;;;5083280;28;20032;-71
2022/12/26 12:31:24;;;;;;;14.68;7.57;;;;;;;;;;5084150;28;20887;-74
2022/12/26 12:34:08;;;;;;;10.15;7.15;;;;;;;;;;5085353;28;20036;-71
2022/12/26 12:36:37;;;;;;;11.55;8.13;;;;;;;;;;5081210;28;20401;-70
2022/12/26 12:39:15;;;;;;;11.80;8.60;;;;;;;;;;5094239;28;20455;-71
2022/12/26 12:41:58;;;;;;;13.02;10.20;;;;;;;;;;5093357;28;20389;-73
2022/12/26 12:44:42;;;;;;;15.90;11.07;;;;;;;;;;5084135;28;20478;-75
2022/12/26 12:47:17;;;;;;;15.38;10.60;;;;;;;;;;5082949;28;20049;-75
2022/12/26 12:49:42;;;;;;;16.02;9.05;;;;;;;;;;5085529;28;20446;-72
2022/12/26 12:52:20;;;;;;;18.93;15.20;;;;;;;;;;5096671;28;20085;-74
2022/12/26 12:54:54;;;;;;;12.10;10.13;;;;;;;;;;5077536;28;20265;-73
2022/12/26 12:57:28;;;;;;;12.70;10.38;;;;;;;;;;5083611;28;20474;-70
2022/12/26 13:00:01;;;;;;;14.23;11.45;;;;;;;;;;5089754;28;20027;-70
2022/12/26 13:02:37;;;;;;;19.73;14.07;;;;;;;;;;5096858;28;20112;-70
2022/12/26 13:05:07;;;;;;;10.48;8.25;;;;;;;;;;5090668;28;20024;-72
2022/12/26 13:07:35;;;;;;;13.18;11.77;;;;;;;;;;5088620;28;20438;-72
2022/12/26 13:10:05;;;;;;;18.60;11.93;;;;;;;;;;5095382;28;20023;-71
2022/12/26 13:12:34;;;;;;;21.77;15.43;;;;;;;;;;5093910;28;20860;-71
2022/12/26 13:15:01;;;;;;;27.13;18.27;;;;;;;;;;5095346;28;20434;-71
2022/12/26 13:17:53;;;;;;;27.20;17.42;;;;;;;;;;5083405;28;20127;-70
2022/12/26 13:20:27;;;;;;;22.42;18.33;;;;;;;;;;5021054;28;20060;-71
2022/12/26 13:25:47;;;;;;;17.77;15.13;;;;;;;;;;5019812;28;20056;-73
2022/12/26 13:28:26;;;;;;;15.05;13.45;;;;;;;;;;5021029;28;20033;-72
2022/12/26 13:30:53;;;;;;;20.27;18.08;;;;;;;;;;5020179;28;20037;-71
2022/12/26 13:33:18;;;;;;;18.80;15.40;;;;;;;;;;5019824;28;20147;-71
2022/12/26 13:35:46;;;;;;;13.15;10.25;;;;;;;;;;5021111;28;20425;-69
2022/12/26 13:38:11;;;;;;;26.35;23.48;;;;;;;;;;5020522;28;20069;-71
2022/12/26 13:40:37;;;;;;;18.67;13.77;;;;;;;;;;5020879;28;20061;-69
2022/12/26 13:45:50;;;;;;;24.05;17.55;;;;;;;;;;5016397;28;20113;-71
2022/12/26 13:48:16;;;;;;;21.50;17.92;;;;;;;;;;5014239;28;20036;-74
2022/12/26 13:50:45;;;;;;;26.27;17.95;;;;;;;;;;5015863;28;20064;-70
2022/12/26 13:53:23;;;;;;;19.98;13.15;;;;;;;;;;5018081;28;20047;-72
2022/12/26 13:55:48;;;;;;;17.23;13.13;;;;;;;;;;5021948;28;20029;-72
2022/12/26 13:58:21;;;;;;;16.80;12.30;;;;;;;;;;5077413;28;20362;-71
2022/12/26 14:00:47;;;;;;;22.73;17.60;;;;;;;;;;5083229;28;20045;-69
2022/12/26 14:03:12;;;;;;;27.45;19.65;;;;;;;;;;5079227;28;20026;-70
2022/12/26 14:05:42;;;;;;;15.93;12.55;;;;;;;;;;5079724;28;20028;-70
2022/12/26 14:08:07;;;;;;;18.77;15.25;;;;;;;;;;5086068;28;20222;-71
2022/12/26 14:10:36;;;;;;;16.38;13.73;;;;;;;;;;5081718;28;20496;-70
2022/12/26 14:13:04;;;;;;;27.48;22.85;;;;;;;;;;5083213;28;20066;-70
2022/12/26 14:15:38;;;;;;;33.88;28.63;;;;;;;;;;5077545;28;20019;-70
2022/12/26 14:18:13;;;;;;;17.95;16.05;;;;;;;;;;5082471;28;20028;-72
2022/12/26 14:20:38;;;;;;;18.65;15.23;;;;;;;;;;5083142;28;20070;-71
2022/12/26 14:23:11;;;;;;;29.58;24.40;;;;;;;;;;5075787;28;20075;-71
2022/12/26 14:25:39;;;;;;;23.38;16.48;;;;;;;;;;5077231;28;20077;-71
2022/12/26 14:28:24;;;;;;;12.05;10.80;;;;;;;;;;5088357;28;20118;-75
2022/12/26 14:30:55;;;;;;;27.35;15.93;;;;;;;;;;5091418;28;20030;-70
2022/12/26 14:33:27;;;;;;;21.67;13.30;;;;;;;;;;5096101;28;20094;-75
2022/12/26 14:36:11;;;;;;;18.50;16.00;;;;;;;;;;5079832;28;20030;-70
2022/12/26 14:38:53;;;;;;;24.00;17.92;;;;;;;;;;5089779;28;20031;-72
2022/12/26 14:44:21;;;;;;;19.30;16.75;;;;;;;;;;5087566;28;20051;-71
2022/12/26 14:46:49;;;;;;;24.25;18.00;;;;;;;;;;5092880;28;20065;-74
2022/12/26 14:49:30;;;;;;;19.13;15.20;;;;;;;;;;5092992;28;20032;-71
2022/12/26 14:52:15;;;;;;;26.67;20.85;;;;;;;;;;5092325;28;20362;-73
2022/12/26 14:54:45;;;;;;;31.27;25.83;;;;;;;;;;5094742;28;20035;-72
2022/12/26 14:57:29;;;;;;;40.88;34.17;;;;;;;;;;5093261;28;20537;-72
2022/12/26 15:00:13;;;;;;;72.43;53.83;;;;;;;;;;5090110;28;20032;-73
2022/12/26 15:02:41;;;;;;;107.63;74.22;;;;;;;;;;5093889;28;20327;-72
2022/12/26 15:05:21;;;;;;;63.25;46.22;;;;;;;;;;5091249;28;20060;-73
2022/12/26 15:08:06;;;;;;;71.68;62.10;;;;;;;;;;5084833;28;20023;-72
2022/12/26 15:10:50;;;;;;;103.43;89.22;;;;;;;;;;5093301;28;20434;-72
2022/12/26 15:13:27;;;;;;;123.13;107.88;;;;;;;;;;5089234;28;20019;-73
2022/12/26 15:16:11;;;;;;;118.78;105.75;;;;;;;;;;5087868;28;20131;-72
2022/12/26 15:18:58;;;;;;;103.28;91.63;;;;;;;;;;5089328;28;20100;-71
2022/12/26 15:21:41;;;;;;;109.70;91.53;;;;;;;;;;5081220;28;20091;-72
2022/12/26 15:24:06;;;;;;;106.50;93.55;;;;;;;;;;5071544;28;20046;-71
2022/12/26 15:26:32;;;;;;;197.52;155.55;;;;;;;;;;5075733;28;20020;-76
2022/12/26 15:29:15;;;;;;;225.00;183.07;;;;;;;;;;5074015;28;20460;-71
2022/12/26 15:31:52;;;;;;;183.40;145.70;;;;;;;;;;5080375;28;20028;-74
2022/12/26 15:34:36;;;;;;;254.77;207.55;;;;;;;;;;5080530;28;20024;-73
2022/12/26 15:37:08;;;;;;;260.80;208.70;;;;;;;;;;5088201;28;20178;-74
2022/12/26 15:39:52;;;;;;;268.30;227.52;;;;;;;;;;5089856;28;20023;-72
2022/12/26 15:42:25;;;;;;;220.90;182.18;;;;;;;;;;5094010;28;20023;-72
2022/12/26 15:44:56;;;;;;;238.93;196.90;;;;;;;;;;5088400;28;20028;-73
2022/12/26 15:47:43;;;;;;;182.20;143.38;;;;;;;;;;5094188;28;20619;-72
2022/12/26 15:50:20;;;;;;;287.20;236.23;;;;;;;;;;5091561;28;20438;-72
2022/12/26 15:52:49;;;;;;;279.48;236.60;;;;;;;;;;5092795;28;20036;-72
2022/12/26 15:55:20;;;;;;;246.35;205.48;;;;;;;;;;5089101;28;20101;-73
2022/12/26 15:57:54;;;;;;;389.63;319.80;;;;;;;;;;5080595;28;20048;-72
2022/12/26 16:00:21;;;;;;;429.35;364.90;;;;;;;;;;5082153;28;20507;-70
2022/12/26 16:02:55;;;;;;;330.45;273.02;;;;;;;;;;5081475;28;20028;-74
2022/12/26 16:05:28;;;;;;;179.63;142.27;;;;;;;;;;5080136;28;20147;-72
2022/12/26 16:07:57;;;;;;;133.52;100.03;;;;;;;;;;5075485;28;20015;-72
2022/12/26 16:10:25;;;;;;;138.85;109.07;;;;;;;;;;5075788;28;20035;-73
2022/12/26 16:13:03;;;;;;;144.43;116.60;;;;;;;;;;5080399;28;20034;-76
2022/12/26 16:15:29;;;;;;;109.25;90.00;;;;;;;;;;5078828;28;20031;-75
2022/12/26 16:18:10;;;;;;;115.93;92.40;;;;;;;;;;5081393;28;20055;-72
2022/12/26 16:23:21;;;;;;;87.85;72.45;;;;;;;;;;5073607;28;20481;-73
2022/12/26 16:25:47;;;;;;;105.57;86.63;;;;;;;;;;5080339;28;20036;-72
2022/12/26 16:28:13;;;;;;;102.28;86.78;;;;;;;;;;5073449;28;20025;-76
2022/12/26 16:30:38;;;;;;;86.72;75.10;;;;;;;;;;5070521;28;20027;-72
2022/12/26 16:33:04;;;;;;;77.80;64.90;;;;;;;;;;5071164;28;20443;-75
2022/12/26 16:35:35;;;;;;;94.75;77.93;;;;;;;;;;5065155;28;20115;-74
2022/12/26 16:38:01;;;;;;;98.75;80.15;;;;;;;;;;5071421;28;20035;-74
2022/12/26 16:40:31;;;;;;;103.70;85.82;;;;;;;;;;5071392;28;20028;-72
2022/12/26 16:42:58;;;;;;;70.95;56.25;;;;;;;;;;5067605;28;20039;-75
2022/12/26 16:45:25;;;;;;;77.28;63.58;;;;;;;;;;5069313;28;20458;-72